sensor_id;sensor_type;location;lat;lon;timestamp;temperature;humidity
23629;DHT22;11991;57.150;-2.134;2023-04-29T00:01:42;6.60;99.90
23629;DHT22;11991;57.150;-2.134;2023-04-29T00:04:09;6.60;99.90
23629;DHT22;11991;57.150;-2.134;2023-04-29T00:06:37;6.60;99.90
23629;DHT22;11991;57.150;-2.134;2023-04-29T00:09:04;6.60;99.90
23629;DHT22;11991;57.150;-2.134;2023-04-29T00:11:31;6.60;99.90
23629;DHT22;11991;57.150;-2.134;2023-04-29T00:13:58;6.60;99.90
23629;DHT22;11991;57.150;-2.134;2023-04-29T00:16:26;6.60;99.90
23629;DHT22;11991;57.150;-2.134;2023-04-29T00:18:53;6.60;99.90
23629;DHT22;11991;57.150;-2.134;2023-04-29T00:21:20;6.60;99.90
23629;DHT22;11991;57.150;-2.134;2023-04-29T00:23:47;6.60;99.90
23629;DHT22;11991;57.150;-2.134;2023-04-29T00:26:14;6.60;99.90
23629;DHT22;11991;57.150;-2.134;2023-04-29T00:28:45;6.60;99.90
23629;DHT22;11991;57.150;-2.134;2023-04-29T00:31:12;6.60;99.90
23629;DHT22;11991;57.150;-2.134;2023-04-29T00:33:40;6.60;99.90
23629;DHT22;11991;57.150;-2.134;2023-04-29T00:36:08;6.60;99.90
23629;DHT22;11991;57.150;-2.134;2023-04-29T00:38:35;6.60;99.90
23629;DHT22;11991;57.150;-2.134;2023-04-29T00:41:03;6.50;99.90
23629;DHT22;11991;57.150;-2.134;2023-04-29T00:43:30;6.50;99.90
23629;DHT22;11991;57.150;-2.134;2023-04-29T00:45:58;6.50;99.90
23629;DHT22;11991;57.150;-2.134;2023-04-29T00:48:25;6.50;99.90
23629;DHT22;11991;57.150;-2.134;2023-04-29T00:50:52;6.40;99.90
23629;DHT22;11991;57.150;-2.134;2023-04-29T00:53:20;6.40;99.90
23629;DHT22;11991;57.150;-2.134;2023-04-29T00:55:49;6.30;99.90
23629;DHT22;11991;57.150;-2.134;2023-04-29T00:58:18;6.30;99.90
23629;DHT22;11991;57.150;-2.134;2023-04-29T01:00:47;6.30;99.90
23629;DHT22;11991;57.150;-2.134;2023-04-29T01:03:14;6.20;99.90
23629;DHT22;11991;57.150;-2.134;2023-04-29T01:05:45;6.20;99.90
23629;DHT22;11991;57.150;-2.134;2023-04-29T01:08:32;6.20;99.90
23629;DHT22;11991;57.150;-2.134;2023-04-29T01:11:12;6.20;99.90
23629;DHT22;11991;57.150;-2.134;2023-04-29T01:13:47;6.20;99.90
23629;DHT22;11991;57.150;-2.134;2023-04-29T01:16:33;6.20;99.90
23629;DHT22;11991;57.150;-2.134;2023-04-29T01:20:10;6.20;99.90
23629;DHT22;11991;57.150;-2.134;2023-04-29T01:22:20;6.20;99.90
23629;DHT22;11991;57.150;-2.134;2023-04-29T01:24:48;6.20;99.90
23629;DHT22;11991;57.150;-2.134;2023-04-29T01:30:20;6.10;99.90
23629;DHT22;11991;57.150;-2.134;2023-04-29T01:38:16;6.10;99.90
23629;DHT22;11991;57.150;-2.134;2023-04-29T01:40:52;6.10;99.90
23629;DHT22;11991;57.150;-2.134;2023-04-29T01:43:29;6.10;99.90
23629;DHT22;11991;57.150;-2.134;2023-04-29T01:45:59;6.10;99.90
23629;DHT22;11991;57.150;-2.134;2023-04-29T01:48:28;6.00;99.90
23629;DHT22;11991;57.150;-2.134;2023-04-29T01:50:55;6.00;99.90
23629;DHT22;11991;57.150;-2.134;2023-04-29T01:53:23;6.00;99.90
23629;DHT22;11991;57.150;-2.134;2023-04-29T01:55:51;6.00;99.90
23629;DHT22;11991;57.150;-2.134;2023-04-29T01:58:21;6.00;99.90
23629;DHT22;11991;57.150;-2.134;2023-04-29T02:01:08;6.00;99.90
23629;DHT22;11991;57.150;-2.134;2023-04-29T02:03:37;6.00;99.90
23629;DHT22;11991;57.150;-2.134;2023-04-29T02:06:08;6.00;99.90
23629;DHT22;11991;57.150;-2.134;2023-04-29T02:08:35;6.00;99.90
23629;DHT22;11991;57.150;-2.134;2023-04-29T02:11:03;5.90;99.90
23629;DHT22;11991;57.150;-2.134;2023-04-29T02:13:33;6.00;99.90
23629;DHT22;11991;57.150;-2.134;2023-04-29T02:16:12;5.90;99.90
23629;DHT22;11991;57.150;-2.134;2023-04-29T02:18:44;5.90;99.90
23629;DHT22;11991;57.150;-2.134;2023-04-29T02:21:12;5.90;99.90
23629;DHT22;11991;57.150;-2.134;2023-04-29T02:23:39;5.90;99.90
23629;DHT22;11991;57.150;-2.134;2023-04-29T02:26:06;5.90;99.90
23629;DHT22;11991;57.150;-2.134;2023-04-29T02:28:35;5.90;99.90
23629;DHT22;11991;57.150;-2.134;2023-04-29T02:31:03;5.90;99.90
23629;DHT22;11991;57.150;-2.134;2023-04-29T02:33:31;5.90;99.90
23629;DHT22;11991;57.150;-2.134;2023-04-29T02:35:59;5.90;99.90
23629;DHT22;11991;57.150;-2.134;2023-04-29T02:38:26;5.90;99.90
23629;DHT22;11991;57.150;-2.134;2023-04-29T02:40:53;5.90;99.90
23629;DHT22;11991;57.150;-2.134;2023-04-29T02:43:20;5.90;99.90
23629;DHT22;11991;57.150;-2.134;2023-04-29T02:45:48;5.90;99.90
23629;DHT22;11991;57.150;-2.134;2023-04-29T02:48:15;5.80;99.90
23629;DHT22;11991;57.150;-2.134;2023-04-29T02:50:43;5.80;99.90
23629;DHT22;11991;57.150;-2.134;2023-04-29T02:53:10;5.80;99.90
23629;DHT22;11991;57.150;-2.134;2023-04-29T02:55:37;5.80;99.90
23629;DHT22;11991;57.150;-2.134;2023-04-29T02:58:09;5.80;99.90
23629;DHT22;11991;57.150;-2.134;2023-04-29T03:00:36;5.80;99.90
23629;DHT22;11991;57.150;-2.134;2023-04-29T03:03:03;5.90;99.90
23629;DHT22;11991;57.150;-2.134;2023-04-29T03:05:31;5.80;99.90
23629;DHT22;11991;57.150;-2.134;2023-04-29T03:07:59;5.90;99.90
23629;DHT22;11991;57.150;-2.134;2023-04-29T03:10:27;5.90;99.90
23629;DHT22;11991;57.150;-2.134;2023-04-29T03:12:54;5.90;99.90
23629;DHT22;11991;57.150;-2.134;2023-04-29T03:15:21;5.90;99.90
23629;DHT22;11991;57.150;-2.134;2023-04-29T03:17:50;5.90;99.90
23629;DHT22;11991;57.150;-2.134;2023-04-29T03:20:17;5.90;99.90
23629;DHT22;11991;57.150;-2.134;2023-04-29T03:22:45;5.90;99.90
23629;DHT22;11991;57.150;-2.134;2023-04-29T03:25:12;5.90;99.90
23629;DHT22;11991;57.150;-2.134;2023-04-29T03:27:40;5.90;99.90
23629;DHT22;11991;57.150;-2.134;2023-04-29T03:30:08;5.90;99.90
23629;DHT22;11991;57.150;-2.134;2023-04-29T03:32:41;5.80;99.90
23629;DHT22;11991;57.150;-2.134;2023-04-29T03:35:08;5.70;99.90
23629;DHT22;11991;57.150;-2.134;2023-04-29T03:38:01;5.70;99.90
23629;DHT22;11991;57.150;-2.134;2023-04-29T03:40:31;5.70;99.90
23629;DHT22;11991;57.150;-2.134;2023-04-29T03:42:58;5.70;99.90
23629;DHT22;11991;57.150;-2.134;2023-04-29T03:45:26;5.70;99.90
23629;DHT22;11991;57.150;-2.134;2023-04-29T03:47:54;5.70;99.90
23629;DHT22;11991;57.150;-2.134;2023-04-29T03:50:22;5.70;99.90
23629;DHT22;11991;57.150;-2.134;2023-04-29T03:52:49;5.70;99.90
23629;DHT22;11991;57.150;-2.134;2023-04-29T03:55:18;5.70;99.90
23629;DHT22;11991;57.150;-2.134;2023-04-29T03:57:46;5.60;99.90
23629;DHT22;11991;57.150;-2.134;2023-04-29T04:00:16;5.60;99.90
23629;DHT22;11991;57.150;-2.134;2023-04-29T04:02:45;5.60;99.90
23629;DHT22;11991;57.150;-2.134;2023-04-29T04:05:14;5.60;99.90
23629;DHT22;11991;57.150;-2.134;2023-04-29T04:07:47;5.40;99.90
23629;DHT22;11991;57.150;-2.134;2023-04-29T04:10:35;5.30;99.90
23629;DHT22;11991;57.150;-2.134;2023-04-29T04:13:09;5.30;99.90
23629;DHT22;11991;57.150;-2.134;2023-04-29T04:15:37;5.30;99.90
23629;DHT22;11991;57.150;-2.134;2023-04-29T04:18:04;5.30;99.90
23629;DHT22;11991;57.150;-2.134;2023-04-29T04:20:32;5.40;99.90
23629;DHT22;11991;57.150;-2.134;2023-04-29T04:22:59;5.40;99.90
23629;DHT22;11991;57.150;-2.134;2023-04-29T04:25:28;5.50;99.90
23629;DHT22;11991;57.150;-2.134;2023-04-29T04:28:16;5.50;99.90
23629;DHT22;11991;57.150;-2.134;2023-04-29T04:30:59;5.50;99.90
23629;DHT22;11991;57.150;-2.134;2023-04-29T04:33:27;5.60;99.90
23629;DHT22;11991;57.150;-2.134;2023-04-29T04:35:56;5.60;99.90
23629;DHT22;11991;57.150;-2.134;2023-04-29T04:38:24;5.60;99.90
23629;DHT22;11991;57.150;-2.134;2023-04-29T04:40:53;5.70;99.90
23629;DHT22;11991;57.150;-2.134;2023-04-29T04:43:33;5.70;99.90
23629;DHT22;11991;57.150;-2.134;2023-04-29T04:46:12;5.70;99.90
23629;DHT22;11991;57.150;-2.134;2023-04-29T04:49:01;5.70;99.90
23629;DHT22;11991;57.150;-2.134;2023-04-29T04:51:31;5.70;99.90
23629;DHT22;11991;57.150;-2.134;2023-04-29T04:53:58;5.70;99.90
23629;DHT22;11991;57.150;-2.134;2023-04-29T04:56:28;5.80;99.90
23629;DHT22;11991;57.150;-2.134;2023-04-29T04:58:55;5.80;99.90
23629;DHT22;11991;57.150;-2.134;2023-04-29T05:01:22;5.80;99.90
23629;DHT22;11991;57.150;-2.134;2023-04-29T05:03:51;5.80;99.90
23629;DHT22;11991;57.150;-2.134;2023-04-29T05:06:18;5.90;99.90
23629;DHT22;11991;57.150;-2.134;2023-04-29T05:08:46;5.80;99.90
23629;DHT22;11991;57.150;-2.134;2023-04-29T05:11:21;5.80;99.90
23629;DHT22;11991;57.150;-2.134;2023-04-29T05:14:10;5.80;99.90
23629;DHT22;11991;57.150;-2.134;2023-04-29T05:16:37;5.80;99.90
23629;DHT22;11991;57.150;-2.134;2023-04-29T05:19:05;5.70;99.90
23629;DHT22;11991;57.150;-2.134;2023-04-29T05:21:36;5.70;99.90
23629;DHT22;11991;57.150;-2.134;2023-04-29T05:24:04;5.80;99.90
23629;DHT22;11991;57.150;-2.134;2023-04-29T05:26:32;5.70;99.90
23629;DHT22;11991;57.150;-2.134;2023-04-29T05:29:00;5.80;99.90
23629;DHT22;11991;57.150;-2.134;2023-04-29T05:31:32;5.80;99.90
23629;DHT22;11991;57.150;-2.134;2023-04-29T05:34:02;5.80;99.90
23629;DHT22;11991;57.150;-2.134;2023-04-29T05:36:29;5.70;99.90
23629;DHT22;11991;57.150;-2.134;2023-04-29T05:38:57;5.70;99.90
23629;DHT22;11991;57.150;-2.134;2023-04-29T05:41:25;5.50;99.90
23629;DHT22;11991;57.150;-2.134;2023-04-29T05:44:15;5.40;99.90
23629;DHT22;11991;57.150;-2.134;2023-04-29T05:46:44;5.40;99.90
23629;DHT22;11991;57.150;-2.134;2023-04-29T05:49:12;5.50;99.90
23629;DHT22;11991;57.150;-2.134;2023-04-29T05:51:40;5.50;99.90
23629;DHT22;11991;57.150;-2.134;2023-04-29T05:54:09;5.40;99.90
23629;DHT22;11991;57.150;-2.134;2023-04-29T05:56:36;5.40;99.90
23629;DHT22;11991;57.150;-2.134;2023-04-29T05:59:03;5.40;99.90
23629;DHT22;11991;57.150;-2.134;2023-04-29T06:01:31;5.40;99.90
23629;DHT22;11991;57.150;-2.134;2023-04-29T06:03:59;5.30;99.90
23629;DHT22;11991;57.150;-2.134;2023-04-29T06:06:36;5.40;99.90
23629;DHT22;11991;57.150;-2.134;2023-04-29T06:09:06;5.40;99.90
23629;DHT22;11991;57.150;-2.134;2023-04-29T06:11:46;5.50;99.90
23629;DHT22;11991;57.150;-2.134;2023-04-29T06:14:14;5.50;99.90
23629;DHT22;11991;57.150;-2.134;2023-04-29T06:16:43;5.50;99.90
23629;DHT22;11991;57.150;-2.134;2023-04-29T06:19:10;5.50;99.90
23629;DHT22;11991;57.150;-2.134;2023-04-29T06:21:37;5.50;99.90
23629;DHT22;11991;57.150;-2.134;2023-04-29T06:24:05;5.50;99.90
23629;DHT22;11991;57.150;-2.134;2023-04-29T06:26:34;5.60;99.90
23629;DHT22;11991;57.150;-2.134;2023-04-29T06:29:01;5.60;99.90
23629;DHT22;11991;57.150;-2.134;2023-04-29T06:31:28;5.60;99.90
23629;DHT22;11991;57.150;-2.134;2023-04-29T06:34:00;5.60;99.90
23629;DHT22;11991;57.150;-2.134;2023-04-29T06:36:27;5.60;99.90
23629;DHT22;11991;57.150;-2.134;2023-04-29T06:39:13;5.60;99.90
23629;DHT22;11991;57.150;-2.134;2023-04-29T06:42:13;5.60;99.90
23629;DHT22;11991;57.150;-2.134;2023-04-29T06:44:40;5.60;99.90
23629;DHT22;11991;57.150;-2.134;2023-04-29T06:47:37;5.60;99.90
23629;DHT22;11991;57.150;-2.134;2023-04-29T06:50:23;5.60;99.90
23629;DHT22;11991;57.150;-2.134;2023-04-29T06:52:50;5.70;99.90
23629;DHT22;11991;57.150;-2.134;2023-04-29T06:55:18;5.70;99.90
23629;DHT22;11991;57.150;-2.134;2023-04-29T06:57:46;5.80;99.90
23629;DHT22;11991;57.150;-2.134;2023-04-29T07:00:13;5.80;99.90
23629;DHT22;11991;57.150;-2.134;2023-04-29T07:02:41;5.80;99.90
23629;DHT22;11991;57.150;-2.134;2023-04-29T07:05:09;5.80;99.90
23629;DHT22;11991;57.150;-2.134;2023-04-29T07:07:36;5.90;99.90
23629;DHT22;11991;57.150;-2.134;2023-04-29T07:10:04;5.90;99.90
23629;DHT22;11991;57.150;-2.134;2023-04-29T07:12:31;5.90;99.90
23629;DHT22;11991;57.150;-2.134;2023-04-29T07:14:58;5.90;99.90
23629;DHT22;11991;57.150;-2.134;2023-04-29T07:17:28;6.00;99.90
23629;DHT22;11991;57.150;-2.134;2023-04-29T07:19:57;6.00;99.90
23629;DHT22;11991;57.150;-2.134;2023-04-29T07:22:24;6.10;99.90
23629;DHT22;11991;57.150;-2.134;2023-04-29T07:24:55;6.10;99.90
23629;DHT22;11991;57.150;-2.134;2023-04-29T07:27:23;6.10;99.90
23629;DHT22;11991;57.150;-2.134;2023-04-29T07:30:16;6.10;99.90
23629;DHT22;11991;57.150;-2.134;2023-04-29T07:32:43;6.10;99.90
23629;DHT22;11991;57.150;-2.134;2023-04-29T07:35:11;6.20;99.90
23629;DHT22;11991;57.150;-2.134;2023-04-29T07:37:38;6.20;99.90
23629;DHT22;11991;57.150;-2.134;2023-04-29T07:40:07;6.20;99.90
23629;DHT22;11991;57.150;-2.134;2023-04-29T07:42:34;6.20;99.90
23629;DHT22;11991;57.150;-2.134;2023-04-29T07:45:03;6.30;99.90
23629;DHT22;11991;57.150;-2.134;2023-04-29T07:47:32;6.30;99.90
23629;DHT22;11991;57.150;-2.134;2023-04-29T07:50:00;6.40;99.90
23629;DHT22;11991;57.150;-2.134;2023-04-29T07:52:28;6.40;99.90
23629;DHT22;11991;57.150;-2.134;2023-04-29T07:54:55;6.40;99.90
23629;DHT22;11991;57.150;-2.134;2023-04-29T07:57:22;6.40;99.90
23629;DHT22;11991;57.150;-2.134;2023-04-29T07:59:52;6.40;99.90
23629;DHT22;11991;57.150;-2.134;2023-04-29T08:02:20;6.40;99.90
23629;DHT22;11991;57.150;-2.134;2023-04-29T08:04:48;6.50;99.90
23629;DHT22;11991;57.150;-2.134;2023-04-29T08:07:18;6.60;99.90
23629;DHT22;11991;57.150;-2.134;2023-04-29T08:09:45;6.60;99.90
23629;DHT22;11991;57.150;-2.134;2023-04-29T08:12:12;6.70;99.90
23629;DHT22;11991;57.150;-2.134;2023-04-29T08:14:40;6.70;99.90
23629;DHT22;11991;57.150;-2.134;2023-04-29T08:17:07;6.80;99.90
23629;DHT22;11991;57.150;-2.134;2023-04-29T08:19:35;6.80;99.90
23629;DHT22;11991;57.150;-2.134;2023-04-29T08:22:02;6.90;99.90
23629;DHT22;11991;57.150;-2.134;2023-04-29T08:24:31;6.90;99.90
23629;DHT22;11991;57.150;-2.134;2023-04-29T08:27:00;7.00;99.90
23629;DHT22;11991;57.150;-2.134;2023-04-29T08:29:30;7.00;99.90
23629;DHT22;11991;57.150;-2.134;2023-04-29T08:32:00;7.10;99.90
23629;DHT22;11991;57.150;-2.134;2023-04-29T08:34:27;7.20;99.90
23629;DHT22;11991;57.150;-2.134;2023-04-29T08:36:56;7.30;99.90
23629;DHT22;11991;57.150;-2.134;2023-04-29T08:39:23;7.50;99.90
23629;DHT22;11991;57.150;-2.134;2023-04-29T08:41:51;7.60;99.90
23629;DHT22;11991;57.150;-2.134;2023-04-29T08:44:19;7.70;99.90
23629;DHT22;11991;57.150;-2.134;2023-04-29T08:46:47;7.70;99.90
23629;DHT22;11991;57.150;-2.134;2023-04-29T08:49:15;7.80;99.90
23629;DHT22;11991;57.150;-2.134;2023-04-29T08:51:42;7.80;99.90
23629;DHT22;11991;57.150;-2.134;2023-04-29T08:54:10;7.90;99.90
23629;DHT22;11991;57.150;-2.134;2023-04-29T08:56:38;8.00;99.90
23629;DHT22;11991;57.150;-2.134;2023-04-29T08:59:08;8.00;99.90
23629;DHT22;11991;57.150;-2.134;2023-04-29T09:01:36;8.10;99.90
23629;DHT22;11991;57.150;-2.134;2023-04-29T09:06:55;8.20;99.90
23629;DHT22;11991;57.150;-2.134;2023-04-29T09:09:24;8.30;99.90
23629;DHT22;11991;57.150;-2.134;2023-04-29T09:11:52;8.30;99.90
23629;DHT22;11991;57.150;-2.134;2023-04-29T09:14:19;8.40;99.90
23629;DHT22;11991;57.150;-2.134;2023-04-29T09:16:48;8.40;99.90
23629;DHT22;11991;57.150;-2.134;2023-04-29T09:19:30;8.40;99.90
23629;DHT22;11991;57.150;-2.134;2023-04-29T09:22:01;8.40;99.90
23629;DHT22;11991;57.150;-2.134;2023-04-29T09:24:30;8.50;99.90
23629;DHT22;11991;57.150;-2.134;2023-04-29T09:26:58;8.50;99.90
23629;DHT22;11991;57.150;-2.134;2023-04-29T09:29:26;8.50;99.90
23629;DHT22;11991;57.150;-2.134;2023-04-29T09:31:53;8.50;99.90
23629;DHT22;11991;57.150;-2.134;2023-04-29T09:34:32;8.50;99.90
23629;DHT22;11991;57.150;-2.134;2023-04-29T09:36:59;8.40;99.90
23629;DHT22;11991;57.150;-2.134;2023-04-29T09:39:26;8.50;99.90
23629;DHT22;11991;57.150;-2.134;2023-04-29T09:42:06;8.50;99.90
23629;DHT22;11991;57.150;-2.134;2023-04-29T09:44:34;8.60;99.90
23629;DHT22;11991;57.150;-2.134;2023-04-29T09:47:03;8.50;99.90
23629;DHT22;11991;57.150;-2.134;2023-04-29T09:49:38;8.60;99.90
23629;DHT22;11991;57.150;-2.134;2023-04-29T09:52:11;8.60;99.90
23629;DHT22;11991;57.150;-2.134;2023-04-29T09:54:41;8.50;99.90
23629;DHT22;11991;57.150;-2.134;2023-04-29T09:57:11;8.50;99.90
23629;DHT22;11991;57.150;-2.134;2023-04-29T09:59:40;8.60;99.90
23629;DHT22;11991;57.150;-2.134;2023-04-29T10:02:16;8.60;99.90
23629;DHT22;11991;57.150;-2.134;2023-04-29T10:04:46;8.60;99.90
23629;DHT22;11991;57.150;-2.134;2023-04-29T10:07:15;8.70;99.90
23629;DHT22;11991;57.150;-2.134;2023-04-29T10:09:44;8.70;99.90
23629;DHT22;11991;57.150;-2.134;2023-04-29T10:12:18;8.70;99.90
23629;DHT22;11991;57.150;-2.134;2023-04-29T10:18:13;8.70;99.90
23629;DHT22;11991;57.150;-2.134;2023-04-29T10:20:46;8.70;99.90
23629;DHT22;11991;57.150;-2.134;2023-04-29T10:23:16;8.70;99.90
23629;DHT22;11991;57.150;-2.134;2023-04-29T10:25:51;8.70;99.90
23629;DHT22;11991;57.150;-2.134;2023-04-29T10:28:22;8.80;99.90
23629;DHT22;11991;57.150;-2.134;2023-04-29T10:30:53;8.80;99.90
23629;DHT22;11991;57.150;-2.134;2023-04-29T10:33:20;8.80;99.90
23629;DHT22;11991;57.150;-2.134;2023-04-29T10:35:50;8.90;99.90
23629;DHT22;11991;57.150;-2.134;2023-04-29T10:38:27;8.90;99.90
23629;DHT22;11991;57.150;-2.134;2023-04-29T10:40:57;9.00;99.90
23629;DHT22;11991;57.150;-2.134;2023-04-29T10:43:25;9.00;99.90
23629;DHT22;11991;57.150;-2.134;2023-04-29T10:48:46;9.20;99.90
23629;DHT22;11991;57.150;-2.134;2023-04-29T10:51:38;9.20;99.90
23629;DHT22;11991;57.150;-2.134;2023-04-29T10:54:13;9.30;99.90
23629;DHT22;11991;57.150;-2.134;2023-04-29T10:56:47;9.30;99.90
23629;DHT22;11991;57.150;-2.134;2023-04-29T10:59:22;9.30;99.90
23629;DHT22;11991;57.150;-2.134;2023-04-29T11:02:11;9.30;99.90
23629;DHT22;11991;57.150;-2.134;2023-04-29T11:05:06;9.30;99.90
23629;DHT22;11991;57.150;-2.134;2023-04-29T11:07:35;9.30;99.90
23629;DHT22;11991;57.150;-2.134;2023-04-29T11:10:03;9.40;99.90
23629;DHT22;11991;57.150;-2.134;2023-04-29T11:12:30;9.40;99.90
23629;DHT22;11991;57.150;-2.134;2023-04-29T11:14:57;9.40;99.90
23629;DHT22;11991;57.150;-2.134;2023-04-29T11:17:36;9.30;99.90
23629;DHT22;11991;57.150;-2.134;2023-04-29T11:20:10;9.30;99.90
23629;DHT22;11991;57.150;-2.134;2023-04-29T11:22:39;9.40;99.90
23629;DHT22;11991;57.150;-2.134;2023-04-29T11:25:07;9.40;99.90
23629;DHT22;11991;57.150;-2.134;2023-04-29T11:27:37;9.40;99.90
23629;DHT22;11991;57.150;-2.134;2023-04-29T11:30:06;9.40;99.90
23629;DHT22;11991;57.150;-2.134;2023-04-29T11:32:38;9.40;99.90
23629;DHT22;11991;57.150;-2.134;2023-04-29T11:35:11;9.50;99.90
23629;DHT22;11991;57.150;-2.134;2023-04-29T11:37:41;9.50;99.90
23629;DHT22;11991;57.150;-2.134;2023-04-29T11:40:09;9.50;99.90
23629;DHT22;11991;57.150;-2.134;2023-04-29T11:42:55;9.40;99.90
23629;DHT22;11991;57.150;-2.134;2023-04-29T11:45:23;9.30;99.90
23629;DHT22;11991;57.150;-2.134;2023-04-29T11:47:50;9.40;99.90
23629;DHT22;11991;57.150;-2.134;2023-04-29T11:50:21;9.50;99.90
23629;DHT22;11991;57.150;-2.134;2023-04-29T11:52:49;9.50;99.90
23629;DHT22;11991;57.150;-2.134;2023-04-29T11:55:17;9.60;99.90
23629;DHT22;11991;57.150;-2.134;2023-04-29T11:57:48;9.70;99.90
23629;DHT22;11991;57.150;-2.134;2023-04-29T12:00:16;9.70;99.90
23629;DHT22;11991;57.150;-2.134;2023-04-29T12:02:45;9.70;99.90
23629;DHT22;11991;57.150;-2.134;2023-04-29T12:05:13;9.80;99.90
23629;DHT22;11991;57.150;-2.134;2023-04-29T12:07:43;9.90;99.90
23629;DHT22;11991;57.150;-2.134;2023-04-29T12:10:11;9.90;99.90
23629;DHT22;11991;57.150;-2.134;2023-04-29T12:12:39;9.90;99.90
23629;DHT22;11991;57.150;-2.134;2023-04-29T12:15:13;9.90;99.90
23629;DHT22;11991;57.150;-2.134;2023-04-29T12:17:41;9.80;99.90
23629;DHT22;11991;57.150;-2.134;2023-04-29T12:20:09;9.80;99.90
23629;DHT22;11991;57.150;-2.134;2023-04-29T12:22:38;9.90;99.90
23629;DHT22;11991;57.150;-2.134;2023-04-29T12:25:06;9.90;99.90
23629;DHT22;11991;57.150;-2.134;2023-04-29T12:27:34;10.00;99.90
23629;DHT22;11991;57.150;-2.134;2023-04-29T12:30:06;10.00;99.90
23629;DHT22;11991;57.150;-2.134;2023-04-29T12:32:34;10.00;99.90
23629;DHT22;11991;57.150;-2.134;2023-04-29T12:35:03;10.00;99.90
23629;DHT22;11991;57.150;-2.134;2023-04-29T12:37:30;10.00;99.90
23629;DHT22;11991;57.150;-2.134;2023-04-29T12:39:57;10.10;99.90
23629;DHT22;11991;57.150;-2.134;2023-04-29T12:42:31;10.10;99.90
23629;DHT22;11991;57.150;-2.134;2023-04-29T12:45:04;10.20;99.90
23629;DHT22;11991;57.150;-2.134;2023-04-29T12:47:32;10.20;99.90
23629;DHT22;11991;57.150;-2.134;2023-04-29T12:50:05;10.10;99.90
23629;DHT22;11991;57.150;-2.134;2023-04-29T12:52:33;10.10;99.90
23629;DHT22;11991;57.150;-2.134;2023-04-29T12:55:02;10.20;99.90
23629;DHT22;11991;57.150;-2.134;2023-04-29T12:57:30;10.30;99.90
23629;DHT22;11991;57.150;-2.134;2023-04-29T12:59:58;10.40;99.90
23629;DHT22;11991;57.150;-2.134;2023-04-29T13:02:25;10.40;99.90
23629;DHT22;11991;57.150;-2.134;2023-04-29T13:04:53;10.30;99.90
23629;DHT22;11991;57.150;-2.134;2023-04-29T13:07:21;10.30;99.90
23629;DHT22;11991;57.150;-2.134;2023-04-29T13:09:48;10.30;99.90
23629;DHT22;11991;57.150;-2.134;2023-04-29T13:12:16;10.30;99.90
23629;DHT22;11991;57.150;-2.134;2023-04-29T13:14:46;10.30;99.90
23629;DHT22;11991;57.150;-2.134;2023-04-29T13:17:13;10.30;99.90
23629;DHT22;11991;57.150;-2.134;2023-04-29T13:19:41;10.30;99.90
23629;DHT22;11991;57.150;-2.134;2023-04-29T13:22:17;10.30;99.90
23629;DHT22;11991;57.150;-2.134;2023-04-29T13:24:45;10.20;99.90
23629;DHT22;11991;57.150;-2.134;2023-04-29T13:27:12;10.20;99.90
23629;DHT22;11991;57.150;-2.134;2023-04-29T13:29:39;10.10;99.90
23629;DHT22;11991;57.150;-2.134;2023-04-29T13:32:07;10.10;99.90
23629;DHT22;11991;57.150;-2.134;2023-04-29T13:34:34;10.10;99.90
23629;DHT22;11991;57.150;-2.134;2023-04-29T13:37:01;10.10;99.90
23629;DHT22;11991;57.150;-2.134;2023-04-29T13:39:29;10.20;99.90
23629;DHT22;11991;57.150;-2.134;2023-04-29T13:41:57;10.30;99.90
23629;DHT22;11991;57.150;-2.134;2023-04-29T13:44:25;10.30;99.90
23629;DHT22;11991;57.150;-2.134;2023-04-29T13:47:05;10.30;99.90
23629;DHT22;11991;57.150;-2.134;2023-04-29T13:49:33;10.20;99.90
23629;DHT22;11991;57.150;-2.134;2023-04-29T13:52:20;10.20;99.90
23629;DHT22;11991;57.150;-2.134;2023-04-29T13:54:50;10.10;99.90
23629;DHT22;11991;57.150;-2.134;2023-04-29T13:57:38;10.10;99.90
23629;DHT22;11991;57.150;-2.134;2023-04-29T14:00:25;10.10;99.90
23629;DHT22;11991;57.150;-2.134;2023-04-29T14:03:12;10.10;99.90
23629;DHT22;11991;57.150;-2.134;2023-04-29T14:05:40;10.20;99.90
23629;DHT22;11991;57.150;-2.134;2023-04-29T14:08:08;10.30;99.90
23629;DHT22;11991;57.150;-2.134;2023-04-29T14:10:35;10.30;99.90
23629;DHT22;11991;57.150;-2.134;2023-04-29T14:13:03;10.30;99.90
23629;DHT22;11991;57.150;-2.134;2023-04-29T14:15:31;10.20;99.90
23629;DHT22;11991;57.150;-2.134;2023-04-29T14:17:58;10.20;99.90
23629;DHT22;11991;57.150;-2.134;2023-04-29T14:20:25;10.20;99.90
23629;DHT22;11991;57.150;-2.134;2023-04-29T14:22:53;10.20;99.90
23629;DHT22;11991;57.150;-2.134;2023-04-29T14:25:21;10.20;99.90
23629;DHT22;11991;57.150;-2.134;2023-04-29T14:27:48;10.20;99.90
23629;DHT22;11991;57.150;-2.134;2023-04-29T14:30:15;10.30;99.90
23629;DHT22;11991;57.150;-2.134;2023-04-29T14:32:43;10.30;99.90
23629;DHT22;11991;57.150;-2.134;2023-04-29T14:35:12;10.20;99.90
23629;DHT22;11991;57.150;-2.134;2023-04-29T14:37:41;10.20;99.90
23629;DHT22;11991;57.150;-2.134;2023-04-29T14:40:08;10.20;99.90
23629;DHT22;11991;57.150;-2.134;2023-04-29T14:42:35;10.10;99.90
23629;DHT22;11991;57.150;-2.134;2023-04-29T14:45:03;10.10;99.90
23629;DHT22;11991;57.150;-2.134;2023-04-29T14:47:30;10.10;99.90
23629;DHT22;11991;57.150;-2.134;2023-04-29T14:49:57;10.10;99.90
23629;DHT22;11991;57.150;-2.134;2023-04-29T14:52:25;10.10;99.90
23629;DHT22;11991;57.150;-2.134;2023-04-29T14:54:52;10.10;99.90
23629;DHT22;11991;57.150;-2.134;2023-04-29T14:57:20;10.10;99.90
23629;DHT22;11991;57.150;-2.134;2023-04-29T14:59:48;10.10;99.90
23629;DHT22;11991;57.150;-2.134;2023-04-29T15:02:16;10.10;99.90
23629;DHT22;11991;57.150;-2.134;2023-04-29T15:04:43;10.00;99.90
23629;DHT22;11991;57.150;-2.134;2023-04-29T15:07:12;9.90;99.90
23629;DHT22;11991;57.150;-2.134;2023-04-29T15:09:40;9.90;99.90
23629;DHT22;11991;57.150;-2.134;2023-04-29T15:12:08;9.90;99.90
23629;DHT22;11991;57.150;-2.134;2023-04-29T15:14:35;9.90;99.90
23629;DHT22;11991;57.150;-2.134;2023-04-29T15:17:02;10.00;99.90
23629;DHT22;11991;57.150;-2.134;2023-04-29T15:19:30;10.10;99.90
23629;DHT22;11991;57.150;-2.134;2023-04-29T15:21:57;10.20;99.90
23629;DHT22;11991;57.150;-2.134;2023-04-29T15:24:24;10.30;99.90
23629;DHT22;11991;57.150;-2.134;2023-04-29T15:26:52;10.50;99.90
23629;DHT22;11991;57.150;-2.134;2023-04-29T15:29:19;10.60;99.90
23629;DHT22;11991;57.150;-2.134;2023-04-29T15:31:47;10.70;99.90
23629;DHT22;11991;57.150;-2.134;2023-04-29T15:34:14;10.70;99.90
23629;DHT22;11991;57.150;-2.134;2023-04-29T15:36:42;10.70;99.90
23629;DHT22;11991;57.150;-2.134;2023-04-29T15:39:09;10.70;99.90
23629;DHT22;11991;57.150;-2.134;2023-04-29T15:41:37;10.70;99.90
23629;DHT22;11991;57.150;-2.134;2023-04-29T15:44:05;10.70;99.90
23629;DHT22;11991;57.150;-2.134;2023-04-29T15:46:32;10.60;99.90
23629;DHT22;11991;57.150;-2.134;2023-04-29T15:49:02;10.60;99.90
23629;DHT22;11991;57.150;-2.134;2023-04-29T15:51:32;10.60;99.90
23629;DHT22;11991;57.150;-2.134;2023-04-29T15:53:59;10.50;99.90
23629;DHT22;11991;57.150;-2.134;2023-04-29T15:56:26;10.40;99.90
23629;DHT22;11991;57.150;-2.134;2023-04-29T15:58:53;10.40;99.90
23629;DHT22;11991;57.150;-2.134;2023-04-29T16:01:21;10.40;99.90
23629;DHT22;11991;57.150;-2.134;2023-04-29T16:03:48;10.50;99.90